createdAt,value
2023-02-27T00:00:38.939Z,0.00
2023-02-27T00:01:39.271Z,0.00
2023-02-27T00:02:39.624Z,0.00
2023-02-27T00:03:39.845Z,0.00
2023-02-27T00:04:40.179Z,0.00
2023-02-27T00:05:40.491Z,0.00
2023-02-27T00:06:40.801Z,0.00
2023-02-27T00:07:41.124Z,0.00
2023-02-27T00:08:41.515Z,0.00
2023-02-27T00:09:41.741Z,0.00
2023-02-27T00:10:41.930Z,0.00
2023-02-27T00:11:42.274Z,0.00
2023-02-27T00:12:42.581Z,0.00
2023-02-27T00:13:42.919Z,0.00
2023-02-27T00:14:43.271Z,0.00
2023-02-27T00:15:43.602Z,0.00
2023-02-27T00:16:43.917Z,0.00
2023-02-27T00:17:44.240Z,0.00
2023-02-27T00:18:44.553Z,0.00
2023-02-27T00:19:44.892Z,0.00
2023-02-27T00:20:45.212Z,0.00
2023-02-27T00:21:45.530Z,0.00
2023-02-27T00:22:45.877Z,0.00
2023-02-27T00:23:46.181Z,0.00
2023-02-27T00:24:46.518Z,0.00
2023-02-27T00:25:46.870Z,0.00
2023-02-27T00:26:47.171Z,0.00
2023-02-27T00:27:47.494Z,0.00
2023-02-27T00:28:47.810Z,0.00
2023-02-27T00:29:48.150Z,0.00
2023-02-27T00:30:48.529Z,0.00
2023-02-27T00:31:48.822Z,0.00
2023-02-27T00:32:49.054Z,0.00
2023-02-27T00:33:49.389Z,0.00
2023-02-27T00:34:49.719Z,0.00
2023-02-27T00:35:50.045Z,0.00
2023-02-27T00:36:50.361Z,0.00
2023-02-27T00:37:50.687Z,0.00
2023-02-27T00:38:51.020Z,0.00
2023-02-27T00:39:51.354Z,0.00
2023-02-27T00:40:51.668Z,0.00
2023-02-27T00:41:51.998Z,0.00
2023-02-27T00:42:52.316Z,0.00
2023-02-27T00:43:52.651Z,0.00
2023-02-27T00:44:52.988Z,0.00
2023-02-27T00:45:53.311Z,0.00
2023-02-27T00:46:53.678Z,0.00
2023-02-27T00:47:53.901Z,0.00
2023-02-27T00:49:01.744Z,0.00
2023-02-27T00:49:54.629Z,0.00
2023-02-27T00:50:54.782Z,0.00
2023-02-27T00:51:55.114Z,0.00
2023-02-27T00:52:55.430Z,0.00
2023-02-27T00:53:55.751Z,0.00
2023-02-27T00:54:56.068Z,0.00
2023-02-27T00:55:56.410Z,0.00
2023-02-27T00:56:56.751Z,0.00
2023-02-27T00:57:57.058Z,0.00
2023-02-27T00:58:57.377Z,0.00
2023-02-27T00:59:57.724Z,0.00
2023-02-27T01:00:57.958Z,0.00
2023-02-27T01:01:58.162Z,0.00
2023-02-27T01:02:58.526Z,0.00
2023-02-27T01:03:58.721Z,0.00
2023-02-27T01:04:59.065Z,0.00
2023-02-27T01:05:59.386Z,0.00
2023-02-27T01:06:59.696Z,0.00
2023-02-27T01:08:00.050Z,0.00
2023-02-27T01:09:00.364Z,0.00
2023-02-27T01:10:00.741Z,0.00
2023-02-27T01:11:01.027Z,0.00
2023-02-27T01:12:01.352Z,0.00
2023-02-27T01:13:01.657Z,0.00
2023-02-27T01:14:01.980Z,0.00
2023-02-27T01:15:02.323Z,0.00
2023-02-27T01:16:02.663Z,0.00
2023-02-27T01:17:02.980Z,0.00
2023-02-27T01:18:03.353Z,0.00
2023-02-27T01:19:03.540Z,0.00
2023-02-27T01:20:03.986Z,0.00
2023-02-27T01:21:04.172Z,0.00
2023-02-27T01:22:04.501Z,0.00
2023-02-27T01:23:04.790Z,0.00
2023-02-27T01:24:05.101Z,0.00
2023-02-27T01:25:05.442Z,0.00
2023-02-27T01:26:05.770Z,0.00
2023-02-27T01:27:06.083Z,0.00
2023-02-27T01:28:06.394Z,0.00
2023-02-27T01:29:06.701Z,0.00
2023-02-27T01:30:07.029Z,0.00
2023-02-27T01:31:07.344Z,0.00
2023-02-27T01:32:07.729Z,0.00
2023-02-27T01:33:07.926Z,0.00
2023-02-27T01:34:08.233Z,0.00
2023-02-27T01:35:08.582Z,0.00
2023-02-27T01:36:08.873Z,0.00
2023-02-27T01:37:09.204Z,0.00
2023-02-27T01:38:09.512Z,0.00
2023-02-27T01:39:09.830Z,0.00
2023-02-27T01:40:10.160Z,0.00
2023-02-27T01:41:10.473Z,0.00
2023-02-27T01:42:12.958Z,0.00
2023-02-27T01:43:11.043Z,0.00
2023-02-27T01:44:11.363Z,0.00
2023-02-27T01:45:11.698Z,0.00
2023-02-27T01:46:12.048Z,0.00
2023-02-27T01:47:12.242Z,0.00
2023-02-27T01:48:12.572Z,0.00
2023-02-27T01:49:12.901Z,0.00
2023-02-27T01:50:13.232Z,0.00
2023-02-27T01:51:13.567Z,0.00
2023-02-27T01:52:13.892Z,0.00
2023-02-27T01:53:14.215Z,0.00
2023-02-27T01:54:14.606Z,0.00
2023-02-27T01:55:14.843Z,0.00
2023-02-27T01:56:15.161Z,0.00
2023-02-27T01:57:15.483Z,0.00
2023-02-27T01:58:15.794Z,0.00
2023-02-27T01:59:16.115Z,0.00
2023-02-27T02:00:16.457Z,0.00
2023-02-27T02:01:16.820Z,0.00
2023-02-27T02:02:17.087Z,0.00
2023-02-27T02:03:17.321Z,0.00
2023-02-27T02:04:17.657Z,0.00
2023-02-27T02:05:18.015Z,0.00
2023-02-27T02:06:18.223Z,0.00
2023-02-27T02:07:18.533Z,0.00
2023-02-27T02:08:18.869Z,0.00
2023-02-27T02:09:19.183Z,0.00
2023-02-27T02:10:19.544Z,0.00
2023-02-27T02:11:19.751Z,0.00
2023-02-27T02:12:20.075Z,0.00
2023-02-27T02:13:20.397Z,0.00
2023-02-27T02:14:20.724Z,0.00
2023-02-27T02:15:21.059Z,0.00
2023-02-27T02:16:21.410Z,0.00
2023-02-27T02:17:21.731Z,0.00
2023-02-27T02:18:22.043Z,0.00
2023-02-27T02:19:22.373Z,0.00
2023-02-27T02:20:22.710Z,0.00
2023-02-27T02:21:23.023Z,0.00
2023-02-27T02:22:23.343Z,0.00
2023-02-27T02:23:23.677Z,0.00
2023-02-27T02:24:23.994Z,0.00
2023-02-27T02:25:24.324Z,0.00
2023-02-27T02:26:25.057Z,0.00
2023-02-27T02:27:24.936Z,0.00
2023-02-27T02:28:25.259Z,0.00
2023-02-27T02:29:25.583Z,0.00
2023-02-27T02:30:25.939Z,0.00
2023-02-27T02:31:26.496Z,0.00
2023-02-27T02:32:26.455Z,0.00
2023-02-27T02:33:26.657Z,0.00
2023-02-27T02:34:26.964Z,0.00
2023-02-27T02:35:27.303Z,0.00
2023-02-27T02:36:27.663Z,0.00
2023-02-27T02:37:27.977Z,0.00
2023-02-27T02:38:28.302Z,0.00
2023-02-27T02:39:28.622Z,0.00
2023-02-27T02:40:28.986Z,0.00
2023-02-27T02:41:29.211Z,0.00
2023-02-27T02:42:29.415Z,0.00
2023-02-27T02:43:29.747Z,0.00
2023-02-27T02:44:30.070Z,0.00
2023-02-27T02:45:30.408Z,0.00
2023-02-27T02:46:30.727Z,0.00
2023-02-27T02:47:31.037Z,0.00
2023-02-27T02:48:31.356Z,0.00
2023-02-27T02:49:31.670Z,0.00
2023-02-27T02:50:32.188Z,0.00
2023-02-27T02:51:32.228Z,0.00
2023-02-27T02:52:32.542Z,0.00
2023-02-27T02:53:36.981Z,0.00
2023-02-27T02:54:33.117Z,0.00
2023-02-27T02:55:33.447Z,0.00
2023-02-27T02:56:33.780Z,0.00
2023-02-27T02:57:34.107Z,0.00
2023-02-27T02:58:34.432Z,0.00
2023-02-27T02:59:34.753Z,0.00
2023-02-27T03:00:35.097Z,0.00
2023-02-27T03:01:35.498Z,0.00
2023-02-27T03:02:35.699Z,0.00
2023-02-27T03:03:36.020Z,0.00
2023-02-27T03:04:36.386Z,0.00
2023-02-27T03:05:36.587Z,0.00
2023-02-27T03:06:36.913Z,0.00
2023-02-27T03:07:37.279Z,0.00
2023-02-27T03:08:37.502Z,0.00
2023-02-27T03:09:37.825Z,0.00
2023-02-27T03:10:38.147Z,0.00
2023-02-27T03:11:38.463Z,0.00
2023-02-27T03:12:38.798Z,0.00
2023-02-27T03:13:39.130Z,0.00
2023-02-27T03:14:39.448Z,0.00
2023-02-27T03:15:39.790Z,0.00
2023-02-27T03:16:40.109Z,0.00
2023-02-27T03:17:40.420Z,0.00
2023-02-27T03:18:40.750Z,0.00
2023-02-27T03:19:41.058Z,0.00
2023-02-27T03:20:41.437Z,0.00
2023-02-27T03:21:41.611Z,0.00
2023-02-27T03:22:41.926Z,0.00
2023-02-27T03:23:42.246Z,0.00
2023-02-27T03:24:42.586Z,0.00
2023-02-27T03:25:42.914Z,0.00
2023-02-27T03:26:43.235Z,0.00
2023-02-27T03:27:43.562Z,0.00
2023-02-27T03:28:43.886Z,0.00
2023-02-27T03:29:44.205Z,0.00
2023-02-27T03:30:44.619Z,0.00
2023-02-27T03:31:44.986Z,0.00
2023-02-27T03:32:45.123Z,0.00
2023-02-27T03:33:45.455Z,0.00
2023-02-27T03:34:45.784Z,0.00
2023-02-27T03:35:46.115Z,0.00
2023-02-27T03:36:46.445Z,0.00
2023-02-27T03:37:46.770Z,0.00
2023-02-27T03:38:47.095Z,0.00
2023-02-27T03:39:47.416Z,0.00
2023-02-27T03:40:47.763Z,0.00
2023-02-27T03:41:47.965Z,0.00
2023-02-27T03:42:48.294Z,0.00
2023-02-27T03:43:48.613Z,0.00
2023-02-27T03:44:49.431Z,0.00
2023-02-27T03:45:49.295Z,0.00
2023-02-27T03:46:49.541Z,0.00
2023-02-27T03:47:49.873Z,0.00
2023-02-27T03:48:50.210Z,0.00
2023-02-27T03:49:50.527Z,0.00
2023-02-27T03:50:51.055Z,0.00
2023-02-27T03:51:51.214Z,0.00
2023-02-27T03:52:51.538Z,0.00
2023-02-27T03:53:51.847Z,0.00
2023-02-27T03:54:52.157Z,0.00
2023-02-27T03:55:52.503Z,0.00
2023-02-27T03:56:52.816Z,0.00
2023-02-27T03:57:53.133Z,0.00
2023-02-27T03:58:53.449Z,0.00
2023-02-27T03:59:53.777Z,0.00
2023-02-27T04:00:54.104Z,0.00
2023-02-27T04:01:54.491Z,0.00
2023-02-27T04:02:54.709Z,0.00
2023-02-27T04:03:54.913Z,0.00
2023-02-27T04:04:55.238Z,0.00
2023-02-27T04:05:55.575Z,0.00
2023-02-27T04:06:55.885Z,0.00
2023-02-27T04:07:56.211Z,0.00
2023-02-27T04:08:56.536Z,0.00
2023-02-27T04:09:56.883Z,0.00
2023-02-27T04:10:57.240Z,0.00
2023-02-27T04:11:57.432Z,0.00
2023-02-27T04:12:57.747Z,0.00
2023-02-27T04:13:58.087Z,0.00
2023-02-27T04:14:58.417Z,0.00
2023-02-27T04:15:58.777Z,0.00
2023-02-27T04:16:59.074Z,0.00
2023-02-27T04:17:59.405Z,0.00
2023-02-27T04:18:59.729Z,0.00
2023-02-27T04:20:00.055Z,0.00
2023-02-27T04:21:00.375Z,0.00
2023-02-27T04:22:00.696Z,0.00
2023-02-27T04:23:01.022Z,0.00
2023-02-27T04:24:01.336Z,0.00
2023-02-27T04:25:01.657Z,0.00
2023-02-27T04:26:01.996Z,0.00
2023-02-27T04:27:02.326Z,0.00
2023-02-27T04:28:02.657Z,0.00
2023-02-27T04:29:02.980Z,0.00
2023-02-27T04:30:03.331Z,0.00
2023-02-27T04:31:03.796Z,0.00
2023-02-27T04:32:03.991Z,0.00
2023-02-27T04:33:04.248Z,0.00
2023-02-27T04:34:04.570Z,0.00
2023-02-27T04:35:04.902Z,0.00
2023-02-27T04:36:05.257Z,0.00
2023-02-27T04:37:05.463Z,0.00
2023-02-27T04:38:05.793Z,0.00
2023-02-27T04:39:06.141Z,0.00
2023-02-27T04:40:06.465Z,0.00
2023-02-27T04:41:06.794Z,0.00
2023-02-27T04:42:07.146Z,0.00
2023-02-27T04:43:07.336Z,0.00
2023-02-27T04:44:07.672Z,0.00
2023-02-27T04:45:08.010Z,0.00
2023-02-27T04:46:08.419Z,0.00
2023-02-27T04:47:08.649Z,0.00
2023-02-27T04:48:08.978Z,0.00
2023-02-27T04:49:09.309Z,0.00
2023-02-27T04:50:09.648Z,0.00
2023-02-27T04:51:11.342Z,0.00
2023-02-27T04:52:10.218Z,0.00
2023-02-27T04:53:10.549Z,0.00
2023-02-27T04:54:10.893Z,0.00
2023-02-27T04:55:11.221Z,0.00
2023-02-27T04:56:11.548Z,0.00
2023-02-27T04:57:11.878Z,0.00
2023-02-27T04:58:12.216Z,0.00
2023-02-27T04:59:12.541Z,0.00
2023-02-27T05:00:12.876Z,0.00
2023-02-27T05:01:13.209Z,0.00
2023-02-27T05:02:13.651Z,0.00
2023-02-27T05:03:13.841Z,0.00
2023-02-27T05:04:14.152Z,0.00
2023-02-27T05:05:14.463Z,0.00
2023-02-27T05:06:14.802Z,0.00
2023-02-27T05:07:15.126Z,0.00
2023-02-27T05:08:15.466Z,0.00
2023-02-27T05:09:15.779Z,0.00
2023-02-27T05:10:16.102Z,0.00
2023-02-27T05:11:16.448Z,0.00
2023-02-27T05:12:16.790Z,0.00
2023-02-27T05:13:16.997Z,0.00
2023-02-27T05:14:17.324Z,0.00
2023-02-27T05:15:17.646Z,0.00
2023-02-27T05:16:18.026Z,0.00
2023-02-27T05:17:18.231Z,0.00
2023-02-27T05:18:18.557Z,0.00
2023-02-27T05:19:18.908Z,0.00
2023-02-27T05:20:19.229Z,0.00
2023-02-27T05:21:19.578Z,0.00
2023-02-27T05:22:19.778Z,0.00
2023-02-27T05:23:20.110Z,0.00
2023-02-27T05:24:20.447Z,0.00
2023-02-27T05:25:20.775Z,0.00
2023-02-27T05:26:21.110Z,0.00
2023-02-27T05:27:21.428Z,0.00
2023-02-27T05:28:21.757Z,0.00
2023-02-27T05:29:22.891Z,0.00
2023-02-27T05:30:22.402Z,0.00
2023-02-27T05:31:22.788Z,0.00
2023-02-27T05:32:22.980Z,0.00
2023-02-27T05:33:23.299Z,0.00
2023-02-27T05:34:23.627Z,0.00
2023-02-27T05:35:23.940Z,0.00
2023-02-27T05:36:24.289Z,0.00
2023-02-27T05:37:24.604Z,0.00
2023-02-27T05:38:24.939Z,0.00
2023-02-27T05:39:25.266Z,0.00
2023-02-27T05:40:25.630Z,0.00
2023-02-27T05:41:26.333Z,0.00
2023-02-27T05:42:26.238Z,0.00
2023-02-27T05:43:26.586Z,0.00
2023-02-27T05:44:26.918Z,0.00
2023-02-27T05:45:27.252Z,0.00
2023-02-27T05:46:27.640Z,0.00
2023-02-27T05:47:27.856Z,0.00
2023-02-27T05:48:28.204Z,0.00
2023-02-27T05:49:28.431Z,0.00
2023-02-27T05:50:28.773Z,0.00
2023-02-27T05:51:29.416Z,0.00
2023-02-27T05:52:29.437Z,0.00
2023-02-27T05:53:29.664Z,0.00
2023-02-27T05:54:29.886Z,0.00
2023-02-27T05:55:30.216Z,0.00
2023-02-27T05:56:30.622Z,0.00
2023-02-27T05:57:30.823Z,0.00
2023-02-27T05:58:31.167Z,0.00
2023-02-27T05:59:31.402Z,0.00
2023-02-27T06:00:31.629Z,0.00
2023-02-27T06:01:31.889Z,5.62
2023-02-27T06:02:32.132Z,5.62
2023-02-27T06:03:32.420Z,5.62
2023-02-27T06:04:32.680Z,5.62
2023-02-27T06:05:32.912Z,5.62
2023-02-27T06:06:33.172Z,5.62
2023-02-27T06:07:33.400Z,5.62
2023-02-27T06:08:33.648Z,5.62
2023-02-27T06:09:33.873Z,5.62
2023-02-27T06:10:34.109Z,5.62
2023-02-27T06:11:34.350Z,5.62
2023-02-27T06:12:34.573Z,5.62
2023-02-27T06:13:34.805Z,11.25
2023-02-27T06:14:35.048Z,11.25
2023-02-27T06:15:35.277Z,11.25
2023-02-27T06:16:35.535Z,11.25
2023-02-27T06:17:35.758Z,11.25
2023-02-27T06:18:36.023Z,11.25
2023-02-27T06:19:36.249Z,11.25
2023-02-27T06:20:36.496Z,11.25
2023-02-27T06:21:36.735Z,11.25
2023-02-27T06:22:36.956Z,16.88
2023-02-27T06:23:37.193Z,16.88
2023-02-27T06:24:37.549Z,16.88
2023-02-27T06:25:37.814Z,22.50
2023-02-27T06:26:38.063Z,22.50
2023-02-27T06:27:38.284Z,22.50
2023-02-27T06:28:38.648Z,28.12
2023-02-27T06:29:38.886Z,28.12
2023-02-27T06:30:39.148Z,28.12
2023-02-27T06:31:39.413Z,28.12
2023-02-27T06:32:39.652Z,28.12
2023-02-27T06:33:39.861Z,28.12
2023-02-27T06:34:40.229Z,33.75
2023-02-27T06:35:40.454Z,33.75
2023-02-27T06:36:40.710Z,33.75
2023-02-27T06:37:40.953Z,39.38
2023-02-27T06:38:41.225Z,39.38
2023-02-27T06:39:41.477Z,39.38
2023-02-27T06:40:41.723Z,39.38
2023-02-27T06:41:41.948Z,39.38
2023-02-27T06:42:42.220Z,39.38
2023-02-27T06:43:42.461Z,45.00
2023-02-27T06:44:42.761Z,45.00
2023-02-27T06:45:42.988Z,45.00
2023-02-27T06:46:43.254Z,45.00
2023-02-27T06:47:43.483Z,45.00
2023-02-27T06:48:51.291Z,50.62
2023-02-27T06:49:44.012Z,50.62
2023-02-27T06:50:44.251Z,56.25
2023-02-27T06:51:45.160Z,56.25
2023-02-27T06:52:44.722Z,61.88
2023-02-27T06:53:44.988Z,61.88
2023-02-27T06:54:45.203Z,61.88
2023-02-27T06:55:45.449Z,61.88
2023-02-27T06:56:45.691Z,61.88
2023-02-27T06:57:45.921Z,61.88
2023-02-27T06:58:46.173Z,61.88
2023-02-27T06:59:46.390Z,61.88
2023-02-27T07:00:46.653Z,61.88
2023-02-27T07:01:46.908Z,61.88
2023-02-27T07:02:47.124Z,61.88
2023-02-27T07:03:47.353Z,61.88
2023-02-27T07:04:47.647Z,61.88
2023-02-27T07:05:47.909Z,61.88
2023-02-27T07:07:32.339Z,61.88
2023-02-27T07:07:49.473Z,61.88
2023-02-27T07:08:54.031Z,61.88
2023-02-27T07:09:50.103Z,61.88
2023-02-27T07:10:49.417Z,67.50
2023-02-27T07:11:49.654Z,67.50
2023-02-27T07:12:49.892Z,67.50
2023-02-27T07:13:50.185Z,67.50
2023-02-27T07:14:50.406Z,67.50
2023-02-27T07:15:50.660Z,67.50
2023-02-27T07:16:51.057Z,67.50
2023-02-27T07:17:51.208Z,67.50
2023-02-27T07:18:51.485Z,67.50
2023-02-27T07:19:51.720Z,67.50
2023-02-27T07:20:51.961Z,67.50
2023-02-27T07:21:52.240Z,73.12
2023-02-27T07:22:52.456Z,73.12
2023-02-27T07:23:52.686Z,73.12
2023-02-27T07:24:52.931Z,78.75
2023-02-27T07:25:53.163Z,78.75
2023-02-27T07:26:53.408Z,78.75
2023-02-27T07:27:53.636Z,78.75
2023-02-27T07:28:53.915Z,78.75
2023-02-27T07:29:54.139Z,78.75
2023-02-27T07:30:54.453Z,78.75
2023-02-27T07:31:54.709Z,78.75
2023-02-27T07:32:54.959Z,78.75
2023-02-27T07:33:55.184Z,78.75
2023-02-27T07:34:55.439Z,78.75
2023-02-27T07:35:55.694Z,78.75
2023-02-27T07:36:55.987Z,78.75
2023-02-27T07:37:56.212Z,90.00
2023-02-27T07:38:56.453Z,95.62
2023-02-27T07:39:56.700Z,101.25
2023-02-27T07:40:56.931Z,106.88
2023-02-27T07:41:57.182Z,106.88
2023-02-27T07:42:57.548Z,106.88
2023-02-27T07:43:57.667Z,106.88
2023-02-27T07:44:57.917Z,106.88
2023-02-27T07:45:58.151Z,112.50
2023-02-27T07:46:58.494Z,112.50
2023-02-27T07:47:58.725Z,106.88
2023-02-27T07:48:58.981Z,106.88
2023-02-27T07:49:59.205Z,101.25
2023-02-27T07:50:59.454Z,101.25
2023-02-27T07:51:59.711Z,106.88
2023-02-27T07:52:59.938Z,106.88
2023-02-27T07:54:00.183Z,112.50
2023-02-27T07:55:00.456Z,112.50
2023-02-27T07:56:00.694Z,112.50
2023-02-27T07:57:00.941Z,112.50
2023-02-27T07:58:01.171Z,112.50
2023-02-27T07:59:01.438Z,106.88
2023-02-27T08:00:01.696Z,106.88
2023-02-27T08:01:01.944Z,112.50
2023-02-27T08:02:02.182Z,112.50
2023-02-27T08:03:02.469Z,112.50
2023-02-27T08:04:02.687Z,112.50
2023-02-27T08:05:02.973Z,112.50
2023-02-27T08:06:03.196Z,112.50
2023-02-27T08:07:03.467Z,118.12
2023-02-27T08:08:03.690Z,123.75
2023-02-27T08:09:03.963Z,123.75
2023-02-27T08:10:04.214Z,123.75
2023-02-27T08:11:04.431Z,123.75
2023-02-27T08:12:04.683Z,123.75
2023-02-27T08:13:04.930Z,123.75
2023-02-27T08:14:05.157Z,123.75
2023-02-27T08:15:05.432Z,123.75
2023-02-27T08:16:05.749Z,123.75
2023-02-27T08:17:05.939Z,123.75
2023-02-27T08:18:06.209Z,123.75
2023-02-27T08:19:06.430Z,123.75
2023-02-27T08:20:06.679Z,123.75
2023-02-27T08:21:06.910Z,123.75
2023-02-27T08:22:07.182Z,123.75
2023-02-27T08:23:07.421Z,123.75
2023-02-27T08:24:07.670Z,118.12
2023-02-27T08:25:07.936Z,123.75
2023-02-27T08:26:08.188Z,123.75
2023-02-27T08:27:08.435Z,129.38
2023-02-27T08:28:08.671Z,135.00
2023-02-27T08:29:08.899Z,135.00
2023-02-27T08:30:09.139Z,140.62
2023-02-27T08:31:09.451Z,140.62
2023-02-27T08:32:09.735Z,140.62
2023-02-27T08:33:09.979Z,140.62
2023-02-27T08:34:11.019Z,140.62
2023-02-27T08:35:10.518Z,146.25
2023-02-27T08:36:10.809Z,146.25
2023-02-27T08:37:11.057Z,146.25
2023-02-27T08:38:11.278Z,146.25
2023-02-27T08:39:12.496Z,151.88
2023-02-27T08:40:11.781Z,157.50
2023-02-27T08:41:12.013Z,157.50
2023-02-27T08:42:12.282Z,157.50
2023-02-27T08:43:12.508Z,157.50
2023-02-27T08:44:12.760Z,157.50
2023-02-27T08:45:12.980Z,151.88
2023-02-27T08:46:13.276Z,151.88
2023-02-27T08:47:13.620Z,157.50
2023-02-27T08:48:13.890Z,163.12
2023-02-27T08:49:14.109Z,163.12
2023-02-27T08:50:14.352Z,157.50
2023-02-27T08:51:14.582Z,157.50
2023-02-27T08:52:14.838Z,163.12
2023-02-27T08:53:15.068Z,163.12
2023-02-27T08:54:15.308Z,168.75
2023-02-27T08:55:15.600Z,168.75
2023-02-27T08:56:15.849Z,168.75
2023-02-27T08:57:16.077Z,174.38
2023-02-27T08:58:18.066Z,174.38
2023-02-27T08:59:16.548Z,174.38
2023-02-27T09:00:16.866Z,180.00
2023-02-27T09:01:17.127Z,185.62
2023-02-27T09:02:17.430Z,196.88
2023-02-27T09:03:17.652Z,196.88
2023-02-27T09:04:17.880Z,202.50
2023-02-27T09:05:18.125Z,202.50
2023-02-27T09:06:18.392Z,202.50
2023-02-27T09:07:18.611Z,196.88
2023-02-27T09:08:18.834Z,202.50
2023-02-27T09:09:19.097Z,196.88
2023-02-27T09:10:19.305Z,196.88
2023-02-27T09:11:19.540Z,202.50
2023-02-27T09:12:19.794Z,202.50
2023-02-27T09:13:20.027Z,208.12
2023-02-27T09:14:20.277Z,208.12
2023-02-27T09:15:20.503Z,208.12
2023-02-27T09:16:20.783Z,213.75
2023-02-27T09:17:21.017Z,219.38
2023-02-27T09:18:21.253Z,219.38
2023-02-27T09:19:21.493Z,225.00
2023-02-27T09:20:21.724Z,219.38
2023-02-27T09:21:21.966Z,213.75
2023-02-27T09:22:22.245Z,213.75
2023-02-27T09:23:22.475Z,213.75
2023-02-27T09:24:22.725Z,213.75
2023-02-27T09:25:22.978Z,219.38
2023-02-27T09:26:39.708Z,219.38
2023-02-27T09:27:24.538Z,225.00
2023-02-27T09:28:23.827Z,225.00
2023-02-27T09:29:24.086Z,225.00
2023-02-27T09:30:24.333Z,225.00
2023-02-27T09:31:24.567Z,219.38
2023-02-27T09:32:24.888Z,225.00
2023-02-27T09:33:25.027Z,225.00
2023-02-27T09:34:25.270Z,225.00
2023-02-27T09:35:25.672Z,225.00
2023-02-27T09:36:26.231Z,225.00
2023-02-27T09:37:26.097Z,225.00
2023-02-27T09:38:26.376Z,225.00
2023-02-27T09:39:26.592Z,225.00
2023-02-27T09:40:26.831Z,225.00
2023-02-27T09:41:27.451Z,225.00
2023-02-27T09:42:27.366Z,225.00
2023-02-27T09:43:27.609Z,225.00
2023-02-27T09:44:43.500Z,225.00
2023-02-27T09:45:29.171Z,225.00
2023-02-27T09:46:28.786Z,225.00
2023-02-27T09:47:28.760Z,225.00
2023-02-27T09:48:28.996Z,219.38
2023-02-27T09:49:29.224Z,219.38
2023-02-27T09:50:29.547Z,225.00
2023-02-27T09:51:30.007Z,225.00
2023-02-27T09:52:30.012Z,219.38
2023-02-27T09:53:30.218Z,219.38
2023-02-27T09:54:30.498Z,219.38
2023-02-27T09:55:30.704Z,219.38
2023-02-27T09:56:30.940Z,230.62
2023-02-27T09:57:31.179Z,219.38
2023-02-27T09:58:31.423Z,219.38
2023-02-27T09:59:32.462Z,219.38
2023-02-27T10:00:31.877Z,225.00
2023-02-27T10:01:32.115Z,225.00
2023-02-27T10:02:32.442Z,236.25
2023-02-27T10:03:32.710Z,241.88
2023-02-27T10:04:32.978Z,241.88
2023-02-27T10:05:33.220Z,247.50
2023-02-27T10:06:33.465Z,247.50
2023-02-27T10:07:33.712Z,241.88
2023-02-27T10:08:33.984Z,236.25
2023-02-27T10:09:34.224Z,225.00
2023-02-27T10:10:34.476Z,213.75
2023-02-27T10:11:34.698Z,208.12
2023-02-27T10:12:35.036Z,208.12
2023-02-27T10:13:35.356Z,213.75
2023-02-27T10:14:35.625Z,202.50
2023-02-27T10:15:35.902Z,196.88
2023-02-27T10:16:36.238Z,185.62
2023-02-27T10:17:36.530Z,180.00
2023-02-27T10:18:36.800Z,180.00
2023-02-27T10:19:37.089Z,191.25
2023-02-27T10:20:37.354Z,185.62
2023-02-27T10:21:37.609Z,180.00
2023-02-27T10:22:37.909Z,180.00
2023-02-27T10:23:38.210Z,185.62
2023-02-27T10:24:38.510Z,185.62
2023-02-27T10:25:38.790Z,185.62
2023-02-27T10:26:39.062Z,185.62
2023-02-27T10:27:39.331Z,185.62
2023-02-27T10:28:39.629Z,185.62
2023-02-27T10:29:39.909Z,180.00
2023-02-27T10:30:40.272Z,185.62
2023-02-27T10:31:40.428Z,191.25
2023-02-27T10:32:40.685Z,196.88
2023-02-27T10:33:40.986Z,196.88
2023-02-27T10:34:41.233Z,202.50
2023-02-27T10:35:41.552Z,202.50
2023-02-27T10:36:41.823Z,202.50
2023-02-27T10:37:42.060Z,202.50
2023-02-27T10:38:42.340Z,202.50
2023-02-27T10:39:42.571Z,202.50
2023-02-27T10:40:42.855Z,196.88
2023-02-27T10:41:43.141Z,196.88
2023-02-27T10:42:43.427Z,191.25
2023-02-27T10:43:43.698Z,185.62
2023-02-27T10:44:43.988Z,180.00
2023-02-27T10:45:44.252Z,168.75
2023-02-27T10:46:44.592Z,163.12
2023-02-27T10:47:44.787Z,157.50
2023-02-27T10:48:45.043Z,157.50
2023-02-27T10:49:45.303Z,157.50
2023-02-27T10:50:45.572Z,151.88
2023-02-27T10:51:45.837Z,157.50
2023-02-27T10:52:46.111Z,163.12
2023-02-27T10:53:46.380Z,174.38
2023-02-27T10:54:46.674Z,180.00
2023-02-27T10:55:46.939Z,185.62
2023-02-27T10:56:47.196Z,185.62
2023-02-27T10:57:47.473Z,185.62
2023-02-27T10:58:47.730Z,185.62
2023-02-27T10:59:47.994Z,180.00
2023-02-27T11:00:48.268Z,180.00
2023-02-27T11:01:48.550Z,174.38
2023-02-27T11:02:48.824Z,174.38
2023-02-27T11:03:49.092Z,174.38
2023-02-27T11:04:49.410Z,168.75
2023-02-27T11:05:49.715Z,168.75
2023-02-27T11:06:49.976Z,174.38
2023-02-27T11:07:51.005Z,174.38
2023-02-27T11:08:50.600Z,174.38
2023-02-27T11:09:50.881Z,174.38
2023-02-27T11:10:51.164Z,180.00
2023-02-27T11:11:51.404Z,191.25
2023-02-27T11:12:51.699Z,191.25
2023-02-27T11:13:51.950Z,185.62
2023-02-27T11:14:52.200Z,185.62
2023-02-27T11:15:53.305Z,185.62
2023-02-27T11:16:52.735Z,180.00
2023-02-27T11:17:53.053Z,180.00
2023-02-27T11:18:54.096Z,168.75
2023-02-27T11:19:53.535Z,168.75
2023-02-27T11:20:54.359Z,163.12
2023-02-27T11:21:54.068Z,163.12
2023-02-27T11:22:54.361Z,163.12
2023-02-27T11:23:56.089Z,168.75
2023-02-27T11:24:55.182Z,185.62
2023-02-27T11:25:55.155Z,168.75
2023-02-27T11:26:55.450Z,174.38
2023-02-27T11:27:55.718Z,185.62
2023-02-27T11:28:55.969Z,185.62
2023-02-27T11:29:56.237Z,185.62
2023-02-27T11:30:56.542Z,185.62
2023-02-27T11:31:56.852Z,191.25
2023-02-27T11:32:57.108Z,196.88
2023-02-27T11:33:57.363Z,202.50
2023-02-27T11:34:57.651Z,208.12
2023-02-27T11:35:58.513Z,208.12
2023-02-27T11:36:58.194Z,213.75
2023-02-27T11:37:58.452Z,213.75
2023-02-27T11:38:59.087Z,213.75
2023-02-27T11:39:59.042Z,213.75
2023-02-27T11:40:59.304Z,213.75
2023-02-27T11:41:59.592Z,213.75
2023-02-27T11:42:59.854Z,213.75
2023-02-27T11:44:00.107Z,219.38
2023-02-27T11:45:00.382Z,219.38
2023-02-27T11:46:13.412Z,219.38
2023-02-27T11:47:01.970Z,219.38
2023-02-27T11:48:01.525Z,219.38
2023-02-27T11:49:01.631Z,219.38
2023-02-27T11:50:01.904Z,213.75
2023-02-27T11:51:02.190Z,213.75
2023-02-27T11:52:02.436Z,213.75
2023-02-27T11:53:02.748Z,213.75
2023-02-27T11:54:03.013Z,208.12
2023-02-27T11:55:03.299Z,202.50
2023-02-27T11:56:03.549Z,202.50
2023-02-27T11:57:03.810Z,202.50
2023-02-27T11:58:04.071Z,202.50
2023-02-27T11:59:04.334Z,202.50
2023-02-27T12:00:04.578Z,202.50
2023-02-27T12:01:04.852Z,196.88
2023-02-27T12:02:05.102Z,191.25
2023-02-27T12:03:05.586Z,191.25
2023-02-27T12:04:05.735Z,191.25
2023-02-27T12:05:05.981Z,191.25
2023-02-27T12:06:06.237Z,191.25
2023-02-27T12:07:06.489Z,185.62
2023-02-27T12:08:06.770Z,185.62
2023-02-27T12:09:07.020Z,180.00
2023-02-27T12:10:07.287Z,168.75
2023-02-27T12:11:14.211Z,157.50
2023-02-27T12:12:08.819Z,140.62
2023-02-27T12:13:08.050Z,140.62
2023-02-27T12:14:08.342Z,135.00
2023-02-27T12:15:08.614Z,135.00
2023-02-27T12:16:08.921Z,140.62
2023-02-27T12:17:09.126Z,146.25
2023-02-27T12:18:09.363Z,146.25
2023-02-27T12:19:09.631Z,151.88
2023-02-27T12:20:09.904Z,163.12
2023-02-27T12:21:10.163Z,163.12
2023-02-27T12:22:10.423Z,168.75
2023-02-27T12:23:10.692Z,185.62
2023-02-27T12:24:10.963Z,191.25
2023-02-27T12:25:11.216Z,174.38
2023-02-27T12:26:11.476Z,163.12
2023-02-27T12:27:11.741Z,151.88
2023-02-27T12:28:12.005Z,140.62
2023-02-27T12:29:12.333Z,129.38
2023-02-27T12:30:12.630Z,112.50
2023-02-27T12:31:12.915Z,118.12
2023-02-27T12:32:13.345Z,118.12
2023-02-27T12:33:13.492Z,123.75
2023-02-27T12:34:13.749Z,123.75
2023-02-27T12:35:14.010Z,123.75
2023-02-27T12:36:14.284Z,123.75
2023-02-27T12:37:14.551Z,129.38
2023-02-27T12:38:14.839Z,129.38
2023-02-27T12:39:15.190Z,129.38
2023-02-27T12:40:15.428Z,129.38
2023-02-27T12:41:15.715Z,123.75
2023-02-27T12:42:16.002Z,129.38
2023-02-27T12:43:16.295Z,140.62
2023-02-27T12:44:16.543Z,140.62
2023-02-27T12:45:16.783Z,151.88
2023-02-27T12:46:17.049Z,157.50
2023-02-27T12:47:17.302Z,163.12
2023-02-27T12:48:17.581Z,174.38
2023-02-27T12:49:25.471Z,174.38
2023-02-27T12:50:18.077Z,185.62
2023-02-27T12:51:18.339Z,180.00
2023-02-27T12:52:18.622Z,191.25
2023-02-27T12:53:18.927Z,180.00
2023-02-27T12:54:19.204Z,168.75
2023-02-27T12:55:19.421Z,180.00
2023-02-27T12:56:19.664Z,180.00
2023-02-27T12:57:19.905Z,168.75
2023-02-27T12:58:20.179Z,157.50